sensor_id;sensor_type;location;lat;lon;timestamp;P1;durP1;ratioP1;P2;durP2;ratioP2
27612;SDS011;15036;48.094;-1.690;2023-02-23T00:00:26;10.43;;;3.30;;
27612;SDS011;15036;48.094;-1.690;2023-02-23T00:02:57;10.13;;;3.60;;
27612;SDS011;15036;48.094;-1.690;2023-02-23T00:05:25;8.32;;;3.05;;
27612;SDS011;15036;48.094;-1.690;2023-02-23T00:07:55;9.40;;;3.28;;
27612;SDS011;15036;48.094;-1.690;2023-02-23T00:10:21;8.50;;;3.47;;
27612;SDS011;15036;48.094;-1.690;2023-02-23T00:12:54;11.43;;;3.63;;
27612;SDS011;15036;48.094;-1.690;2023-02-23T00:15:23;9.77;;;3.38;;
27612;SDS011;15036;48.094;-1.690;2023-02-23T00:17:51;12.38;;;3.85;;
27612;SDS011;15036;48.094;-1.690;2023-02-23T00:20:21;10.15;;;3.30;;
27612;SDS011;15036;48.094;-1.690;2023-02-23T00:22:55;11.65;;;3.90;;
27612;SDS011;15036;48.094;-1.690;2023-02-23T00:25:21;7.50;;;3.60;;
27612;SDS011;15036;48.094;-1.690;2023-02-23T00:27:48;9.32;;;3.60;;
27612;SDS011;15036;48.094;-1.690;2023-02-23T00:30:15;9.45;;;3.40;;
27612;SDS011;15036;48.094;-1.690;2023-02-23T00:32:42;11.32;;;3.53;;
27612;SDS011;15036;48.094;-1.690;2023-02-23T00:35:08;13.40;;;3.97;;
27612;SDS011;15036;48.094;-1.690;2023-02-23T00:37:40;12.02;;;3.72;;
27612;SDS011;15036;48.094;-1.690;2023-02-23T00:40:06;11.70;;;4.07;;
27612;SDS011;15036;48.094;-1.690;2023-02-23T00:42:40;7.35;;;3.33;;
27612;SDS011;15036;48.094;-1.690;2023-02-23T00:45:06;9.13;;;3.28;;
27612;SDS011;15036;48.094;-1.690;2023-02-23T00:47:35;11.33;;;3.90;;
27612;SDS011;15036;48.094;-1.690;2023-02-23T00:50:01;9.70;;;3.60;;
27612;SDS011;15036;48.094;-1.690;2023-02-23T00:52:27;8.93;;;3.50;;
27612;SDS011;15036;48.094;-1.690;2023-02-23T00:54:53;8.73;;;3.85;;
27612;SDS011;15036;48.094;-1.690;2023-02-23T00:57:20;11.77;;;3.70;;
27612;SDS011;15036;48.094;-1.690;2023-02-23T00:59:46;11.55;;;3.72;;
27612;SDS011;15036;48.094;-1.690;2023-02-23T01:02:12;13.02;;;3.75;;
27612;SDS011;15036;48.094;-1.690;2023-02-23T01:04:37;10.70;;;4.07;;
27612;SDS011;15036;48.094;-1.690;2023-02-23T01:07:02;11.02;;;4.05;;
27612;SDS011;15036;48.094;-1.690;2023-02-23T01:09:30;9.48;;;4.00;;
27612;SDS011;15036;48.094;-1.690;2023-02-23T01:11:56;13.38;;;3.83;;
27612;SDS011;15036;48.094;-1.690;2023-02-23T01:14:25;10.52;;;3.72;;
27612;SDS011;15036;48.094;-1.690;2023-02-23T01:16:51;13.40;;;4.38;;
27612;SDS011;15036;48.094;-1.690;2023-02-23T01:19:16;10.02;;;3.80;;
27612;SDS011;15036;48.094;-1.690;2023-02-23T01:21:42;10.70;;;3.88;;
27612;SDS011;15036;48.094;-1.690;2023-02-23T01:24:07;10.13;;;3.90;;
27612;SDS011;15036;48.094;-1.690;2023-02-23T01:26:34;9.32;;;3.50;;
27612;SDS011;15036;48.094;-1.690;2023-02-23T01:29:03;10.13;;;3.60;;
27612;SDS011;15036;48.094;-1.690;2023-02-23T01:31:32;9.55;;;3.85;;
27612;SDS011;15036;48.094;-1.690;2023-02-23T01:33:59;13.07;;;4.80;;
27612;SDS011;15036;48.094;-1.690;2023-02-23T01:36:26;11.75;;;3.83;;
27612;SDS011;15036;48.094;-1.690;2023-02-23T01:38:53;11.35;;;3.65;;
27612;SDS011;15036;48.094;-1.690;2023-02-23T01:41:21;10.60;;;3.95;;
27612;SDS011;15036;48.094;-1.690;2023-02-23T01:46:19;8.15;;;3.63;;
27612;SDS011;15036;48.094;-1.690;2023-02-23T01:48:45;11.40;;;4.53;;
27612;SDS011;15036;48.094;-1.690;2023-02-23T01:51:14;10.88;;;3.85;;
27612;SDS011;15036;48.094;-1.690;2023-02-23T01:53:50;11.00;;;3.80;;
27612;SDS011;15036;48.094;-1.690;2023-02-23T01:56:21;10.00;;;3.60;;
27612;SDS011;15036;48.094;-1.690;2023-02-23T01:58:52;12.25;;;3.92;;
27612;SDS011;15036;48.094;-1.690;2023-02-23T02:01:21;8.02;;;2.88;;
27612;SDS011;15036;48.094;-1.690;2023-02-23T02:03:49;12.38;;;4.07;;
27612;SDS011;15036;48.094;-1.690;2023-02-23T02:06:19;11.32;;;3.95;;
27612;SDS011;15036;48.094;-1.690;2023-02-23T02:08:48;11.15;;;4.10;;
27612;SDS011;15036;48.094;-1.690;2023-02-23T02:11:19;8.65;;;3.80;;
27612;SDS011;15036;48.094;-1.690;2023-02-23T02:14:01;8.85;;;4.00;;
27612;SDS011;15036;48.094;-1.690;2023-02-23T02:22:52;13.32;;;4.82;;
27612;SDS011;15036;48.094;-1.690;2023-02-23T02:47:26;10.35;;;3.97;;
27612;SDS011;15036;48.094;-1.690;2023-02-23T02:52:40;8.05;;;3.97;;
27612;SDS011;15036;48.094;-1.690;2023-02-23T02:57:37;12.73;;;4.00;;
27612;SDS011;15036;48.094;-1.690;2023-02-23T03:00:04;11.65;;;4.63;;
27612;SDS011;15036;48.094;-1.690;2023-02-23T03:02:49;9.15;;;4.00;;
27612;SDS011;15036;48.094;-1.690;2023-02-23T03:08:47;11.65;;;4.28;;
27612;SDS011;15036;48.094;-1.690;2023-02-23T03:11:42;10.35;;;4.50;;
27612;SDS011;15036;48.094;-1.690;2023-02-23T03:18:07;13.55;;;5.05;;
27612;SDS011;15036;48.094;-1.690;2023-02-23T03:21:11;11.98;;;4.20;;
27612;SDS011;15036;48.094;-1.690;2023-02-23T03:24:11;15.43;;;4.97;;
27612;SDS011;15036;48.094;-1.690;2023-02-23T03:30:53;9.48;;;4.75;;
27612;SDS011;15036;48.094;-1.690;2023-02-23T03:33:23;14.65;;;5.55;;
27612;SDS011;15036;48.094;-1.690;2023-02-23T03:36:34;14.27;;;5.40;;
27612;SDS011;15036;48.094;-1.690;2023-02-23T03:39:32;12.77;;;4.75;;
27612;SDS011;15036;48.094;-1.690;2023-02-23T03:42:25;13.45;;;5.20;;
27612;SDS011;15036;48.094;-1.690;2023-02-23T03:45:13;11.43;;;4.82;;
27612;SDS011;15036;48.094;-1.690;2023-02-23T03:48:02;11.90;;;4.63;;
27612;SDS011;15036;48.094;-1.690;2023-02-23T03:50:53;13.35;;;5.47;;
27612;SDS011;15036;48.094;-1.690;2023-02-23T03:53:42;11.65;;;4.57;;
27612;SDS011;15036;48.094;-1.690;2023-02-23T03:56:32;10.80;;;4.10;;
27612;SDS011;15036;48.094;-1.690;2023-02-23T03:59:21;12.70;;;4.50;;
27612;SDS011;15036;48.094;-1.690;2023-02-23T04:02:09;12.73;;;4.60;;
27612;SDS011;15036;48.094;-1.690;2023-02-23T04:04:54;17.73;;;5.05;;
27612;SDS011;15036;48.094;-1.690;2023-02-23T04:07:41;10.32;;;4.13;;
27612;SDS011;15036;48.094;-1.690;2023-02-23T04:10:29;15.45;;;4.72;;
27612;SDS011;15036;48.094;-1.690;2023-02-23T04:13:20;10.90;;;4.35;;
27612;SDS011;15036;48.094;-1.690;2023-02-23T04:15:55;13.20;;;5.15;;
27612;SDS011;15036;48.094;-1.690;2023-02-23T04:18:26;12.65;;;4.53;;
27612;SDS011;15036;48.094;-1.690;2023-02-23T04:20:54;10.30;;;4.38;;
27612;SDS011;15036;48.094;-1.690;2023-02-23T04:23:21;11.30;;;4.28;;
27612;SDS011;15036;48.094;-1.690;2023-02-23T04:25:47;13.95;;;4.60;;
27612;SDS011;15036;48.094;-1.690;2023-02-23T04:28:13;8.80;;;4.38;;
27612;SDS011;15036;48.094;-1.690;2023-02-23T04:30:40;11.30;;;4.28;;
27612;SDS011;15036;48.094;-1.690;2023-02-23T04:33:05;13.88;;;4.85;;
27612;SDS011;15036;48.094;-1.690;2023-02-23T04:35:31;12.77;;;4.85;;
27612;SDS011;15036;48.094;-1.690;2023-02-23T04:37:57;11.27;;;5.07;;
27612;SDS011;15036;48.094;-1.690;2023-02-23T04:40:23;13.02;;;4.93;;
27612;SDS011;15036;48.094;-1.690;2023-02-23T04:42:49;12.45;;;4.63;;
27612;SDS011;15036;48.094;-1.690;2023-02-23T04:45:14;9.63;;;4.53;;
27612;SDS011;15036;48.094;-1.690;2023-02-23T04:47:40;11.75;;;4.03;;
27612;SDS011;15036;48.094;-1.690;2023-02-23T04:50:05;10.52;;;4.05;;
27612;SDS011;15036;48.094;-1.690;2023-02-23T04:52:31;13.82;;;4.53;;
27612;SDS011;15036;48.094;-1.690;2023-02-23T04:54:58;15.15;;;4.68;;
27612;SDS011;15036;48.094;-1.690;2023-02-23T04:57:24;10.60;;;4.30;;
27612;SDS011;15036;48.094;-1.690;2023-02-23T04:59:50;11.43;;;4.47;;
27612;SDS011;15036;48.094;-1.690;2023-02-23T05:02:16;15.07;;;4.70;;
27612;SDS011;15036;48.094;-1.690;2023-02-23T05:04:41;12.68;;;4.47;;
27612;SDS011;15036;48.094;-1.690;2023-02-23T05:07:06;10.88;;;5.07;;
27612;SDS011;15036;48.094;-1.690;2023-02-23T05:09:32;8.63;;;4.50;;
27612;SDS011;15036;48.094;-1.690;2023-02-23T05:11:57;10.32;;;5.13;;
27612;SDS011;15036;48.094;-1.690;2023-02-23T05:14:23;11.32;;;4.60;;
27612;SDS011;15036;48.094;-1.690;2023-02-23T05:16:49;12.68;;;5.20;;
27612;SDS011;15036;48.094;-1.690;2023-02-23T05:19:15;12.70;;;5.20;;
27612;SDS011;15036;48.094;-1.690;2023-02-23T05:21:40;13.10;;;5.13;;
27612;SDS011;15036;48.094;-1.690;2023-02-23T05:24:06;12.52;;;4.50;;
27612;SDS011;15036;48.094;-1.690;2023-02-23T05:26:32;16.58;;;4.95;;
27612;SDS011;15036;48.094;-1.690;2023-02-23T05:28:57;11.32;;;4.53;;
27612;SDS011;15036;48.094;-1.690;2023-02-23T05:31:23;14.10;;;4.63;;
27612;SDS011;15036;48.094;-1.690;2023-02-23T05:33:48;10.98;;;4.40;;
27612;SDS011;15036;48.094;-1.690;2023-02-23T05:36:15;11.90;;;4.70;;
27612;SDS011;15036;48.094;-1.690;2023-02-23T05:38:43;9.73;;;4.13;;
27612;SDS011;15036;48.094;-1.690;2023-02-23T05:41:13;12.60;;;4.63;;
27612;SDS011;15036;48.094;-1.690;2023-02-23T05:46:24;10.32;;;4.47;;
27612;SDS011;15036;48.094;-1.690;2023-02-23T05:48:54;11.40;;;4.53;;
27612;SDS011;15036;48.094;-1.690;2023-02-23T05:51:22;11.27;;;4.35;;
27612;SDS011;15036;48.094;-1.690;2023-02-23T05:53:48;13.70;;;4.60;;
27612;SDS011;15036;48.094;-1.690;2023-02-23T05:56:14;16.10;;;4.47;;
27612;SDS011;15036;48.094;-1.690;2023-02-23T05:58:55;9.48;;;4.13;;
27612;SDS011;15036;48.094;-1.690;2023-02-23T06:01:22;17.33;;;5.43;;
27612;SDS011;15036;48.094;-1.690;2023-02-23T06:03:48;14.73;;;5.13;;
27612;SDS011;15036;48.094;-1.690;2023-02-23T06:06:14;15.50;;;5.40;;
27612;SDS011;15036;48.094;-1.690;2023-02-23T06:08:40;12.15;;;5.40;;
27612;SDS011;15036;48.094;-1.690;2023-02-23T06:11:06;12.70;;;5.25;;
27612;SDS011;15036;48.094;-1.690;2023-02-23T06:13:32;10.07;;;4.80;;
27612;SDS011;15036;48.094;-1.690;2023-02-23T06:15:58;10.60;;;4.20;;
27612;SDS011;15036;48.094;-1.690;2023-02-23T06:18:27;11.13;;;4.70;;
27612;SDS011;15036;48.094;-1.690;2023-02-23T06:20:53;8.70;;;4.20;;
27612;SDS011;15036;48.094;-1.690;2023-02-23T06:23:18;14.10;;;4.53;;
27612;SDS011;15036;48.094;-1.690;2023-02-23T06:25:47;9.52;;;4.07;;
27612;SDS011;15036;48.094;-1.690;2023-02-23T06:28:12;12.02;;;4.30;;
27612;SDS011;15036;48.094;-1.690;2023-02-23T06:30:39;9.93;;;4.22;;
27612;SDS011;15036;48.094;-1.690;2023-02-23T06:33:04;11.05;;;4.57;;
27612;SDS011;15036;48.094;-1.690;2023-02-23T06:35:31;9.43;;;4.07;;
27612;SDS011;15036;48.094;-1.690;2023-02-23T06:37:57;11.02;;;4.32;;
27612;SDS011;15036;48.094;-1.690;2023-02-23T06:40:23;14.75;;;4.03;;
27612;SDS011;15036;48.094;-1.690;2023-02-23T06:42:48;18.00;;;5.53;;
27612;SDS011;15036;48.094;-1.690;2023-02-23T06:45:14;18.95;;;6.07;;
27612;SDS011;15036;48.094;-1.690;2023-02-23T06:47:40;11.15;;;5.05;;
27612;SDS011;15036;48.094;-1.690;2023-02-23T06:50:06;12.13;;;3.75;;
27612;SDS011;15036;48.094;-1.690;2023-02-23T06:52:32;16.42;;;4.55;;
27612;SDS011;15036;48.094;-1.690;2023-02-23T06:54:58;12.43;;;5.03;;
27612;SDS011;15036;48.094;-1.690;2023-02-23T06:57:23;8.85;;;3.78;;
27612;SDS011;15036;48.094;-1.690;2023-02-23T06:59:49;13.80;;;3.83;;
27612;SDS011;15036;48.094;-1.690;2023-02-23T07:02:15;12.05;;;3.65;;
27612;SDS011;15036;48.094;-1.690;2023-02-23T07:04:40;10.32;;;4.03;;
27612;SDS011;15036;48.094;-1.690;2023-02-23T07:07:06;12.90;;;3.97;;
27612;SDS011;15036;48.094;-1.690;2023-02-23T07:09:32;13.40;;;3.95;;
27612;SDS011;15036;48.094;-1.690;2023-02-23T07:11:58;15.00;;;4.45;;
27612;SDS011;15036;48.094;-1.690;2023-02-23T07:14:23;12.13;;;4.72;;
27612;SDS011;15036;48.094;-1.690;2023-02-23T07:16:49;15.25;;;8.52;;
27612;SDS011;15036;48.094;-1.690;2023-02-23T07:19:14;19.05;;;8.82;;
27612;SDS011;15036;48.094;-1.690;2023-02-23T07:21:40;21.80;;;9.75;;
27612;SDS011;15036;48.094;-1.690;2023-02-23T07:24:05;17.00;;;6.95;;
27612;SDS011;15036;48.094;-1.690;2023-02-23T07:26:31;53.13;;;47.40;;
27612;SDS011;15036;48.094;-1.690;2023-02-23T07:28:59;19.27;;;14.25;;
27612;SDS011;15036;48.094;-1.690;2023-02-23T07:31:25;19.00;;;11.75;;
27612;SDS011;15036;48.094;-1.690;2023-02-23T07:33:51;23.63;;;14.40;;
27612;SDS011;15036;48.094;-1.690;2023-02-23T07:36:19;39.17;;;18.88;;
27612;SDS011;15036;48.094;-1.690;2023-02-23T07:38:48;19.80;;;11.68;;
27612;SDS011;15036;48.094;-1.690;2023-02-23T07:41:13;21.40;;;11.20;;
27612;SDS011;15036;48.094;-1.690;2023-02-23T07:43:39;12.55;;;5.10;;
27612;SDS011;15036;48.094;-1.690;2023-02-23T07:46:04;12.35;;;5.07;;
27612;SDS011;15036;48.094;-1.690;2023-02-23T07:48:30;8.88;;;4.15;;
27612;SDS011;15036;48.094;-1.690;2023-02-23T07:50:56;11.85;;;4.22;;
27612;SDS011;15036;48.094;-1.690;2023-02-23T07:53:21;15.27;;;4.38;;
27612;SDS011;15036;48.094;-1.690;2023-02-23T07:55:57;16.05;;;4.50;;
27612;SDS011;15036;48.094;-1.690;2023-02-23T07:58:24;13.90;;;4.88;;
27612;SDS011;15036;48.094;-1.690;2023-02-23T08:00:50;13.13;;;4.88;;
27612;SDS011;15036;48.094;-1.690;2023-02-23T08:03:16;11.30;;;4.10;;
27612;SDS011;15036;48.094;-1.690;2023-02-23T08:05:41;11.57;;;4.20;;
27612;SDS011;15036;48.094;-1.690;2023-02-23T08:08:08;10.48;;;4.13;;
27612;SDS011;15036;48.094;-1.690;2023-02-23T08:10:35;13.35;;;5.07;;
27612;SDS011;15036;48.094;-1.690;2023-02-23T08:13:00;59.58;;;42.15;;
27612;SDS011;15036;48.094;-1.690;2023-02-23T08:15:26;30.17;;;17.10;;
27612;SDS011;15036;48.094;-1.690;2023-02-23T08:17:52;23.33;;;10.98;;
27612;SDS011;15036;48.094;-1.690;2023-02-23T08:20:17;19.77;;;6.13;;
27612;SDS011;15036;48.094;-1.690;2023-02-23T08:22:42;19.35;;;6.60;;
27612;SDS011;15036;48.094;-1.690;2023-02-23T08:25:08;14.30;;;4.43;;
27612;SDS011;15036;48.094;-1.690;2023-02-23T08:27:34;14.63;;;4.50;;
27612;SDS011;15036;48.094;-1.690;2023-02-23T08:30:02;12.10;;;6.40;;
27612;SDS011;15036;48.094;-1.690;2023-02-23T08:32:31;11.48;;;4.35;;
27612;SDS011;15036;48.094;-1.690;2023-02-23T08:34:59;11.70;;;4.60;;
27612;SDS011;15036;48.094;-1.690;2023-02-23T08:37:27;14.10;;;4.60;;
27612;SDS011;15036;48.094;-1.690;2023-02-23T08:39:53;13.05;;;4.60;;
27612;SDS011;15036;48.094;-1.690;2023-02-23T08:42:25;11.38;;;4.63;;
27612;SDS011;15036;48.094;-1.690;2023-02-23T08:44:57;13.70;;;4.50;;
27612;SDS011;15036;48.094;-1.690;2023-02-23T08:47:25;9.45;;;3.45;;
27612;SDS011;15036;48.094;-1.690;2023-02-23T08:49:51;14.55;;;4.32;;
27612;SDS011;15036;48.094;-1.690;2023-02-23T08:52:19;14.15;;;4.22;;
27612;SDS011;15036;48.094;-1.690;2023-02-23T08:54:45;17.17;;;4.88;;
27612;SDS011;15036;48.094;-1.690;2023-02-23T08:57:11;13.63;;;5.97;;
27612;SDS011;15036;48.094;-1.690;2023-02-23T08:59:37;18.67;;;6.30;;
27612;SDS011;15036;48.094;-1.690;2023-02-23T09:02:04;11.13;;;4.30;;
27612;SDS011;15036;48.094;-1.690;2023-02-23T09:04:31;21.25;;;6.63;;
27612;SDS011;15036;48.094;-1.690;2023-02-23T09:06:59;20.90;;;8.02;;
27612;SDS011;15036;48.094;-1.690;2023-02-23T09:09:25;19.95;;;9.38;;
27612;SDS011;15036;48.094;-1.690;2023-02-23T09:11:51;18.15;;;5.80;;
27612;SDS011;15036;48.094;-1.690;2023-02-23T09:14:17;13.40;;;5.28;;
27612;SDS011;15036;48.094;-1.690;2023-02-23T09:16:43;15.57;;;4.57;;
27612;SDS011;15036;48.094;-1.690;2023-02-23T09:19:09;17.30;;;4.95;;
27612;SDS011;15036;48.094;-1.690;2023-02-23T09:21:34;13.18;;;4.68;;
27612;SDS011;15036;48.094;-1.690;2023-02-23T09:24:00;17.65;;;4.82;;
27612;SDS011;15036;48.094;-1.690;2023-02-23T09:26:25;16.63;;;5.40;;
27612;SDS011;15036;48.094;-1.690;2023-02-23T09:28:53;22.38;;;5.22;;
27612;SDS011;15036;48.094;-1.690;2023-02-23T09:31:20;16.15;;;5.43;;
27612;SDS011;15036;48.094;-1.690;2023-02-23T09:33:47;16.08;;;4.65;;
27612;SDS011;15036;48.094;-1.690;2023-02-23T09:36:17;8.95;;;4.38;;
27612;SDS011;15036;48.094;-1.690;2023-02-23T09:38:45;33.58;;;20.02;;
27612;SDS011;15036;48.094;-1.690;2023-02-23T09:44:32;15.70;;;4.75;;
27612;SDS011;15036;48.094;-1.690;2023-02-23T09:49:42;24.58;;;13.57;;
27612;SDS011;15036;48.094;-1.690;2023-02-23T09:52:14;15.10;;;5.43;;
27612;SDS011;15036;48.094;-1.690;2023-02-23T09:54:42;14.65;;;6.25;;
27612;SDS011;15036;48.094;-1.690;2023-02-23T09:57:12;11.85;;;5.20;;
27612;SDS011;15036;48.094;-1.690;2023-02-23T09:59:42;11.60;;;4.80;;
27612;SDS011;15036;48.094;-1.690;2023-02-23T10:05:04;12.52;;;5.10;;
27612;SDS011;15036;48.094;-1.690;2023-02-23T10:11:05;16.45;;;5.28;;
27612;SDS011;15036;48.094;-1.690;2023-02-23T10:16:37;17.58;;;4.93;;
27612;SDS011;15036;48.094;-1.690;2023-02-23T10:22:17;13.55;;;4.07;;
27612;SDS011;15036;48.094;-1.690;2023-02-23T10:24:47;17.88;;;5.15;;
27612;SDS011;15036;48.094;-1.690;2023-02-23T10:27:20;13.85;;;4.78;;
27612;SDS011;15036;48.094;-1.690;2023-02-23T10:29:51;12.80;;;4.57;;
27612;SDS011;15036;48.094;-1.690;2023-02-23T10:35:04;13.63;;;5.00;;
27612;SDS011;15036;48.094;-1.690;2023-02-23T10:37:40;15.90;;;4.55;;
27612;SDS011;15036;48.094;-1.690;2023-02-23T10:40:06;12.93;;;4.63;;
27612;SDS011;15036;48.094;-1.690;2023-02-23T10:42:37;12.52;;;4.28;;
27612;SDS011;15036;48.094;-1.690;2023-02-23T10:45:05;15.27;;;4.93;;
27612;SDS011;15036;48.094;-1.690;2023-02-23T10:47:42;14.80;;;4.80;;
27612;SDS011;15036;48.094;-1.690;2023-02-23T10:50:09;14.35;;;4.63;;
27612;SDS011;15036;48.094;-1.690;2023-02-23T10:52:39;13.02;;;5.00;;
27612;SDS011;15036;48.094;-1.690;2023-02-23T10:55:07;11.73;;;4.75;;
27612;SDS011;15036;48.094;-1.690;2023-02-23T10:57:46;14.15;;;4.60;;
27612;SDS011;15036;48.094;-1.690;2023-02-23T11:02:40;12.65;;;4.55;;
27612;SDS011;15036;48.094;-1.690;2023-02-23T11:05:12;11.07;;;4.10;;
27612;SDS011;15036;48.094;-1.690;2023-02-23T11:11:03;10.05;;;3.63;;
27612;SDS011;15036;48.094;-1.690;2023-02-23T11:13:45;14.27;;;3.60;;
27612;SDS011;15036;48.094;-1.690;2023-02-23T11:18:40;12.05;;;4.10;;
27612;SDS011;15036;48.094;-1.690;2023-02-23T11:21:16;11.48;;;3.95;;
27612;SDS011;15036;48.094;-1.690;2023-02-23T11:23:47;9.15;;;4.07;;
27612;SDS011;15036;48.094;-1.690;2023-02-23T11:29:00;15.35;;;5.00;;
27612;SDS011;15036;48.094;-1.690;2023-02-23T11:31:35;11.65;;;4.53;;
27612;SDS011;15036;48.094;-1.690;2023-02-23T11:34:02;10.60;;;4.65;;
27612;SDS011;15036;48.094;-1.690;2023-02-23T11:36:31;10.68;;;4.72;;
27612;SDS011;15036;48.094;-1.690;2023-02-23T11:39:13;8.38;;;4.43;;
27612;SDS011;15036;48.094;-1.690;2023-02-23T11:41:44;9.20;;;4.13;;
27612;SDS011;15036;48.094;-1.690;2023-02-23T11:44:19;13.70;;;5.15;;
27612;SDS011;15036;48.094;-1.690;2023-02-23T11:46:46;16.58;;;5.97;;
27612;SDS011;15036;48.094;-1.690;2023-02-23T11:49:17;15.77;;;6.30;;
27612;SDS011;15036;48.094;-1.690;2023-02-23T11:51:48;17.95;;;7.63;;
27612;SDS011;15036;48.094;-1.690;2023-02-23T11:54:19;18.35;;;7.18;;
27612;SDS011;15036;48.094;-1.690;2023-02-23T11:56:52;18.33;;;10.85;;
27612;SDS011;15036;48.094;-1.690;2023-02-23T11:59:39;14.13;;;8.10;;
27612;SDS011;15036;48.094;-1.690;2023-02-23T12:02:20;17.15;;;7.55;;
27612;SDS011;15036;48.094;-1.690;2023-02-23T12:04:47;12.85;;;5.20;;
27612;SDS011;15036;48.094;-1.690;2023-02-23T12:10:06;11.15;;;5.10;;
27612;SDS011;15036;48.094;-1.690;2023-02-23T12:12:39;9.07;;;4.25;;
27612;SDS011;15036;48.094;-1.690;2023-02-23T12:23:43;9.18;;;4.68;;
27612;SDS011;15036;48.094;-1.690;2023-02-23T12:26:15;11.88;;;4.50;;
27612;SDS011;15036;48.094;-1.690;2023-02-23T12:29:04;10.93;;;4.78;;
27612;SDS011;15036;48.094;-1.690;2023-02-23T12:31:45;12.60;;;5.15;;
27612;SDS011;15036;48.094;-1.690;2023-02-23T12:34:20;14.57;;;4.75;;
27612;SDS011;15036;48.094;-1.690;2023-02-23T12:37:01;15.23;;;4.82;;
27612;SDS011;15036;48.094;-1.690;2023-02-23T12:39:40;8.57;;;4.20;;
27612;SDS011;15036;48.094;-1.690;2023-02-23T12:45:12;10.52;;;4.50;;
27612;SDS011;15036;48.094;-1.690;2023-02-23T12:47:57;12.05;;;4.60;;
27612;SDS011;15036;48.094;-1.690;2023-02-23T12:50:30;9.48;;;3.97;;
27612;SDS011;15036;48.094;-1.690;2023-02-23T12:58:58;9.50;;;4.10;;
27612;SDS011;15036;48.094;-1.690;2023-02-23T13:10:00;10.57;;;4.40;;
27612;SDS011;15036;48.094;-1.690;2023-02-23T13:17:55;13.35;;;4.30;;
27612;SDS011;15036;48.094;-1.690;2023-02-23T13:31:46;8.73;;;2.63;;
27612;SDS011;15036;48.094;-1.690;2023-02-23T13:34:14;7.43;;;3.17;;
27612;SDS011;15036;48.094;-1.690;2023-02-23T13:36:54;7.00;;;3.20;;
27612;SDS011;15036;48.094;-1.690;2023-02-23T13:48:05;7.70;;;3.70;;
27612;SDS011;15036;48.094;-1.690;2023-02-23T13:56:27;12.40;;;4.70;;
27612;SDS011;15036;48.094;-1.690;2023-02-23T13:58:57;9.57;;;4.85;;
27612;SDS011;15036;48.094;-1.690;2023-02-23T14:01:39;13.45;;;5.82;;
27612;SDS011;15036;48.094;-1.690;2023-02-23T14:04:13;6.10;;;3.60;;
27612;SDS011;15036;48.094;-1.690;2023-02-23T14:06:48;8.00;;;4.15;;
27612;SDS011;15036;48.094;-1.690;2023-02-23T14:09:27;9.63;;;4.47;;
27612;SDS011;15036;48.094;-1.690;2023-02-23T14:14:47;11.15;;;5.40;;
27612;SDS011;15036;48.094;-1.690;2023-02-23T14:22:30;7.38;;;4.28;;
27612;SDS011;15036;48.094;-1.690;2023-02-23T14:28:45;9.77;;;4.50;;
27612;SDS011;15036;48.094;-1.690;2023-02-23T14:31:34;8.50;;;4.43;;
27612;SDS011;15036;48.094;-1.690;2023-02-23T14:33:36;9.45;;;5.05;;
27612;SDS011;15036;48.094;-1.690;2023-02-23T14:38:45;11.35;;;5.97;;
27612;SDS011;15036;48.094;-1.690;2023-02-23T14:41:10;8.35;;;5.22;;
27612;SDS011;15036;48.094;-1.690;2023-02-23T14:46:11;10.93;;;5.80;;
27612;SDS011;15036;48.094;-1.690;2023-02-23T14:48:44;9.52;;;5.43;;
27612;SDS011;15036;48.094;-1.690;2023-02-23T14:51:27;11.30;;;6.85;;
27612;SDS011;15036;48.094;-1.690;2023-02-23T14:54:00;14.52;;;5.75;;
27612;SDS011;15036;48.094;-1.690;2023-02-23T14:56:26;15.40;;;7.30;;
27612;SDS011;15036;48.094;-1.690;2023-02-23T14:58:52;12.43;;;6.22;;
27612;SDS011;15036;48.094;-1.690;2023-02-23T15:01:32;10.25;;;5.70;;
27612;SDS011;15036;48.094;-1.690;2023-02-23T15:04:11;10.45;;;5.75;;
27612;SDS011;15036;48.094;-1.690;2023-02-23T15:06:40;13.60;;;6.47;;
27612;SDS011;15036;48.094;-1.690;2023-02-23T15:09:07;11.52;;;6.57;;
27612;SDS011;15036;48.094;-1.690;2023-02-23T15:11:39;13.45;;;7.45;;
27612;SDS011;15036;48.094;-1.690;2023-02-23T15:14:08;11.32;;;7.35;;
27612;SDS011;15036;48.094;-1.690;2023-02-23T15:16:38;10.23;;;6.82;;
27612;SDS011;15036;48.094;-1.690;2023-02-23T15:19:04;14.23;;;7.70;;
27612;SDS011;15036;48.094;-1.690;2023-02-23T15:21:31;10.90;;;7.38;;
27612;SDS011;15036;48.094;-1.690;2023-02-23T15:24:03;9.50;;;6.53;;
27612;SDS011;15036;48.094;-1.690;2023-02-23T15:26:35;9.93;;;5.93;;
27612;SDS011;15036;48.094;-1.690;2023-02-23T15:31:37;16.08;;;9.50;;
27612;SDS011;15036;48.094;-1.690;2023-02-23T15:34:13;14.32;;;9.95;;
27612;SDS011;15036;48.094;-1.690;2023-02-23T15:36:39;15.18;;;9.73;;
27612;SDS011;15036;48.094;-1.690;2023-02-23T15:39:05;15.45;;;10.25;;
27612;SDS011;15036;48.094;-1.690;2023-02-23T15:41:35;15.48;;;10.38;;
27612;SDS011;15036;48.094;-1.690;2023-02-23T15:44:07;16.52;;;9.50;;
27612;SDS011;15036;48.094;-1.690;2023-02-23T15:46:36;12.25;;;8.75;;
27612;SDS011;15036;48.094;-1.690;2023-02-23T15:49:02;13.52;;;9.68;;
27612;SDS011;15036;48.094;-1.690;2023-02-23T15:51:40;15.23;;;10.27;;
27612;SDS011;15036;48.094;-1.690;2023-02-23T15:57:04;18.30;;;11.80;;
27612;SDS011;15036;48.094;-1.690;2023-02-23T15:59:38;19.15;;;11.52;;
27612;SDS011;15036;48.094;-1.690;2023-02-23T16:02:11;17.73;;;12.93;;
27612;SDS011;15036;48.094;-1.690;2023-02-23T16:04:40;18.15;;;11.98;;
27612;SDS011;15036;48.094;-1.690;2023-02-23T16:09:52;18.10;;;12.63;;
27612;SDS011;15036;48.094;-1.690;2023-02-23T16:12:28;19.58;;;14.18;;
27612;SDS011;15036;48.094;-1.690;2023-02-23T16:15:00;21.85;;;14.45;;
27612;SDS011;15036;48.094;-1.690;2023-02-23T16:20:11;23.50;;;14.27;;
27612;SDS011;15036;48.094;-1.690;2023-02-23T16:22:53;22.83;;;14.73;;
27612;SDS011;15036;48.094;-1.690;2023-02-23T16:25:20;23.27;;;15.20;;
27612;SDS011;15036;48.094;-1.690;2023-02-23T16:27:52;19.73;;;14.10;;
27612;SDS011;15036;48.094;-1.690;2023-02-23T16:36:17;19.83;;;14.70;;
27612;SDS011;15036;48.094;-1.690;2023-02-23T16:38:58;22.02;;;15.60;;
27612;SDS011;15036;48.094;-1.690;2023-02-23T16:41:26;21.15;;;13.90;;
27612;SDS011;15036;48.094;-1.690;2023-02-23T16:43:55;25.30;;;16.02;;
27612;SDS011;15036;48.094;-1.690;2023-02-23T16:46:24;21.67;;;14.98;;
27612;SDS011;15036;48.094;-1.690;2023-02-23T16:48:53;24.53;;;16.80;;
27612;SDS011;15036;48.094;-1.690;2023-02-23T16:51:19;20.77;;;14.88;;
27612;SDS011;15036;48.094;-1.690;2023-02-23T16:53:49;24.00;;;15.93;;
27612;SDS011;15036;48.094;-1.690;2023-02-23T16:56:16;21.65;;;16.25;;
27612;SDS011;15036;48.094;-1.690;2023-02-23T16:58:48;24.63;;;16.77;;
27612;SDS011;15036;48.094;-1.690;2023-02-23T17:01:18;24.38;;;16.40;;
27612;SDS011;15036;48.094;-1.690;2023-02-23T17:03:43;23.80;;;16.85;;
27612;SDS011;15036;48.094;-1.690;2023-02-23T17:06:09;29.98;;;20.70;;
27612;SDS011;15036;48.094;-1.690;2023-02-23T17:08:36;24.00;;;16.48;;
27612;SDS011;15036;48.094;-1.690;2023-02-23T17:11:02;22.15;;;16.65;;
27612;SDS011;15036;48.094;-1.690;2023-02-23T17:13:28;22.65;;;16.48;;
27612;SDS011;15036;48.094;-1.690;2023-02-23T17:15:57;26.02;;;17.60;;
27612;SDS011;15036;48.094;-1.690;2023-02-23T17:18:31;29.20;;;20.30;;
27612;SDS011;15036;48.094;-1.690;2023-02-23T17:21:05;31.02;;;21.60;;
27612;SDS011;15036;48.094;-1.690;2023-02-23T17:23:34;34.72;;;22.02;;
27612;SDS011;15036;48.094;-1.690;2023-02-23T17:26:05;35.50;;;23.35;;
27612;SDS011;15036;48.094;-1.690;2023-02-23T17:28:31;41.40;;;24.25;;
27612;SDS011;15036;48.094;-1.690;2023-02-23T17:30:57;42.15;;;26.77;;
27612;SDS011;15036;48.094;-1.690;2023-02-23T17:33:22;48.28;;;30.15;;